Main page
METAR-TAF:

METAR-TAF

Airports :

Warton Aerodrome

Preston, England

latitude: 53-44-42N, longitude: 2-53-02W, elevation: 17 m

Current weather observation

The report was made 9 hours and 5 minutes ago, at 13:50 UTC
Wind 4 kt from the West, varying between West and Northwest
Temperature 8°C
Humidity 100%
Pressure 1010 hPa
Visibility: 0800 m
Overcast at a height of 200 ft
fog

METAR: EGNO 271350Z 28004KT 260V320 0800 FG OVC002 08/08 Q1010

Time: 22:55 (22:55 UTC)

Forecast

The report was made 8 hours and 56 minutes ago, at 13:59 UTC
Forecast valid from 27 at 15 UTC to 27 at 19 UTC
Wind 6 kt from the West/Southwest
Visibility 10 km or more
Scattered clouds at a height of 1200 ft
Temporary
from 27 at 15 UTC to 27 at 19 UTC
Visibility: 7000 m
Broken clouds at a height of 700 ft
Probability 30% :
Temporary
from 27 at 15 UTC to 27 at 19 UTC
Visibility: 0300 m
Broken clouds at a height of 100 ft
fog

TAF: EGNO 271359Z 2715/2719 24006KT 9999 SCT012 TEMPO 2715/2719 7000 BKN007 PROB30 TEMPO 2715/2719 0300 FG BKN001

Weather observations and forecasts of more than 4000 airports (METAR and TAF reports).

The available stations are represented by yellow and red dots on the map.

Hover mouse over dot to see the name of the station.

Then click to see weather observations and forecasts.

To change the map : click on the green buttons with a black cross to zoom in, on the green button with a dash to zoom out, or on the green arrows for adjacent maps.


METAR-TAF: